createdAt,value
2022-08-12T00:00:18.419Z,19.30
2022-08-12T00:03:23.153Z,19.30
2022-08-12T00:06:29.488Z,19.30
2022-08-12T00:09:34.070Z,19.30
2022-08-12T00:12:38.567Z,19.20
2022-08-12T00:15:44.982Z,19.20
2022-08-12T00:18:49.719Z,19.10
2022-08-12T00:21:56.696Z,19.10
2022-08-12T00:25:01.305Z,19.10
2022-08-12T00:28:06.753Z,19.00
2022-08-12T00:31:11.563Z,19.00
2022-08-12T00:34:16.443Z,19.00
2022-08-12T00:37:24.177Z,18.90
2022-08-12T00:40:32.274Z,18.90
2022-08-12T00:43:20.826Z,18.90
2022-08-12T00:46:25.229Z,18.80
2022-08-12T00:49:11.509Z,18.80
2022-08-12T00:52:08.448Z,18.70
2022-08-12T00:54:58.780Z,18.70
2022-08-12T00:57:48.928Z,18.60
2022-08-12T01:00:37.045Z,18.60
2022-08-12T01:03:24.780Z,18.50
2022-08-12T01:06:26.414Z,18.50
2022-08-12T01:09:33.410Z,18.50
2022-08-12T01:12:21.081Z,18.40
2022-08-12T01:15:07.786Z,18.40
2022-08-12T01:17:53.961Z,18.30
2022-08-12T01:20:53.509Z,18.30
2022-08-12T01:24:23.056Z,18.30
2022-08-12T01:27:17.107Z,18.20
2022-08-12T01:30:08.796Z,18.10
2022-08-12T01:32:59.430Z,18.10
2022-08-12T01:35:57.857Z,18.10
2022-08-12T01:38:59.128Z,18.00
2022-08-12T01:41:54.587Z,18.00
2022-08-12T01:44:42.870Z,17.90
2022-08-12T01:47:39.375Z,17.90
2022-08-12T01:50:37.821Z,17.80
2022-08-12T01:53:27.224Z,17.90
2022-08-12T01:56:15.686Z,17.80
2022-08-12T01:59:19.602Z,17.70
2022-08-12T02:02:13.320Z,17.70
2022-08-12T02:05:30.712Z,17.70
2022-08-12T02:08:52.258Z,17.70
2022-08-12T02:11:49.496Z,17.60
2022-08-12T02:14:51.763Z,17.60
2022-08-12T02:17:56.419Z,17.60
2022-08-12T02:20:52.886Z,17.50
2022-08-12T02:23:40.865Z,17.50
2022-08-12T02:26:31.801Z,17.40
2022-08-12T02:29:20.214Z,17.40
2022-08-12T02:32:08.450Z,17.50
2022-08-12T02:34:58.029Z,17.40
2022-08-12T02:37:45.729Z,17.40
2022-08-12T02:40:36.250Z,17.40
2022-08-12T02:43:34.923Z,17.40
2022-08-12T02:46:29.246Z,17.40
2022-08-12T02:49:22.935Z,17.30
2022-08-12T02:52:12.255Z,17.30
2022-08-12T02:55:34.063Z,17.30
2022-08-12T02:58:32.906Z,17.30
2022-08-12T03:01:28.756Z,17.30
2022-08-12T03:04:26.813Z,17.20
2022-08-12T03:07:21.352Z,17.20
2022-08-12T03:10:14.628Z,17.20
2022-08-12T03:13:08.509Z,17.20
2022-08-12T03:15:56.262Z,17.10
2022-08-12T03:18:45.947Z,17.10
2022-08-12T03:21:57.855Z,17.10
2022-08-12T03:24:46.307Z,17.00
2022-08-12T03:27:33.520Z,17.00
2022-08-12T03:30:21.811Z,17.00
2022-08-12T03:33:10.574Z,17.00
2022-08-12T03:36:00.911Z,16.90
2022-08-12T03:39:12.212Z,16.90
2022-08-12T03:42:06.425Z,16.90
2022-08-12T03:45:19.786Z,16.90
2022-08-12T03:48:28.188Z,16.80
2022-08-12T03:51:33.688Z,16.80
2022-08-12T03:54:42.146Z,16.80
2022-08-12T03:57:48.617Z,16.70
2022-08-12T04:00:37.635Z,16.70
2022-08-12T04:03:42.409Z,16.70
2022-08-12T04:06:34.539Z,16.70
2022-08-12T04:09:22.890Z,16.60
2022-08-12T04:12:32.326Z,16.60
2022-08-12T04:15:20.734Z,16.60
2022-08-12T04:18:07.999Z,16.60
2022-08-12T04:20:55.227Z,16.50
2022-08-12T04:23:47.869Z,16.50
2022-08-12T04:26:37.036Z,16.50
2022-08-12T04:30:30.487Z,16.50
2022-08-12T04:32:33.714Z,16.50
2022-08-12T04:35:22.107Z,16.50
2022-08-12T04:38:09.677Z,16.50
2022-08-12T04:40:56.972Z,16.50
2022-08-12T04:44:00.773Z,16.50
2022-08-12T04:46:49.870Z,16.50
2022-08-12T04:49:39.286Z,16.50
2022-08-12T04:52:26.288Z,16.50
2022-08-12T04:55:13.481Z,16.50
2022-08-12T04:58:00.430Z,16.60
2022-08-12T05:00:47.680Z,16.60
2022-08-12T05:03:46.814Z,16.70
2022-08-12T05:06:36.891Z,16.70
2022-08-12T05:09:23.803Z,16.80
2022-08-12T05:12:12.705Z,16.80
2022-08-12T05:15:00.860Z,16.90
2022-08-12T05:17:48.585Z,16.90
2022-08-12T05:20:35.943Z,17.00
2022-08-12T05:23:24.177Z,17.00
2022-08-12T05:26:11.807Z,17.20
2022-08-12T05:28:58.858Z,17.20
2022-08-12T05:31:47.974Z,17.30
2022-08-12T05:34:35.953Z,17.40
2022-08-12T05:37:23.479Z,17.50
2022-08-12T05:40:12.860Z,17.60
2022-08-12T05:42:59.760Z,17.70
2022-08-12T05:45:46.829Z,17.70
2022-08-12T05:48:34.180Z,17.90
2022-08-12T05:51:32.286Z,18.00
2022-08-12T05:54:54.356Z,18.10
2022-08-12T05:57:37.401Z,18.20
2022-08-12T06:00:26.006Z,18.30
2022-08-12T06:03:19.734Z,18.40
2022-08-12T06:06:07.513Z,18.50
2022-08-12T06:08:57.666Z,18.70
2022-08-12T06:12:04.371Z,18.80
2022-08-12T06:14:55.414Z,18.90
2022-08-12T06:17:42.548Z,19.10
2022-08-12T06:20:33.521Z,19.20
2022-08-12T06:23:21.068Z,19.40
2022-08-12T06:26:13.011Z,19.50
2022-08-12T06:29:00.893Z,19.60
2022-08-12T06:31:53.007Z,19.70
2022-08-12T06:35:25.390Z,19.80
2022-08-12T06:37:56.832Z,19.90
2022-08-12T06:40:59.644Z,20.00
2022-08-12T06:44:04.529Z,20.20
2022-08-12T06:46:53.867Z,20.30
2022-08-12T06:49:43.284Z,20.40
2022-08-12T06:52:31.274Z,20.60
2022-08-12T06:55:20.693Z,20.70
2022-08-12T06:58:10.175Z,20.80
2022-08-12T07:01:00.865Z,21.00
2022-08-12T07:03:48.973Z,21.20
2022-08-12T07:06:36.200Z,21.30
2022-08-12T07:10:04.419Z,21.40
2022-08-12T07:12:30.225Z,21.50
2022-08-12T07:15:20.451Z,21.70
2022-08-12T07:18:16.221Z,21.80
2022-08-12T07:21:08.300Z,21.90
2022-08-12T07:23:55.622Z,22.00
2022-08-12T07:26:44.246Z,22.20
2022-08-12T07:29:58.036Z,22.30
2022-08-12T07:32:38.966Z,22.50
2022-08-12T07:35:26.035Z,22.70
2022-08-12T07:38:29.889Z,22.80
2022-08-12T07:41:19.737Z,23.00
2022-08-12T07:44:09.044Z,23.10
2022-08-12T07:46:55.839Z,23.30
2022-08-12T07:50:04.220Z,23.40
2022-08-12T07:52:50.012Z,23.60
2022-08-12T07:55:39.281Z,23.80
2022-08-12T07:58:26.296Z,23.80
2022-08-12T08:01:16.534Z,23.90
2022-08-12T08:04:19.394Z,24.10
2022-08-12T08:07:05.993Z,24.30
2022-08-12T08:09:51.875Z,24.40
2022-08-12T08:12:56.119Z,24.40
2022-08-12T08:16:02.406Z,24.80
2022-08-12T08:18:50.878Z,25.10
2022-08-12T08:21:38.236Z,25.40
2022-08-12T08:24:27.038Z,25.70
2022-08-12T08:27:13.897Z,25.80
2022-08-12T08:30:02.514Z,26.10
2022-08-12T08:32:49.909Z,26.30
2022-08-12T08:35:47.646Z,26.40
2022-08-12T08:38:35.540Z,26.40
2022-08-12T08:42:17.445Z,26.50
2022-08-12T08:44:42.992Z,26.60
2022-08-12T08:47:30.442Z,26.70
2022-08-12T08:50:16.332Z,26.80
2022-08-12T08:53:03.353Z,26.80
2022-08-12T08:56:04.547Z,26.90
2022-08-12T08:58:52.513Z,26.80
2022-08-12T09:01:40.750Z,26.90
2022-08-12T09:05:11.973Z,26.80
2022-08-12T09:07:58.938Z,26.90
2022-08-12T09:10:55.257Z,27.00
2022-08-12T09:14:12.960Z,27.20
2022-08-12T09:16:52.957Z,27.30
2022-08-12T09:19:42.263Z,27.30
2022-08-12T09:22:30.290Z,27.30
2022-08-12T09:28:30.824Z,27.40
2022-08-12T09:32:04.382Z,27.50
2022-08-12T09:34:33.882Z,27.60
2022-08-12T09:37:26.918Z,27.50
2022-08-12T09:40:57.533Z,27.40
2022-08-12T09:43:36.336Z,27.30
2022-08-12T09:46:25.347Z,27.30
2022-08-12T09:49:13.230Z,27.20
2022-08-12T09:52:03.013Z,27.10
2022-08-12T09:54:53.828Z,26.90
2022-08-12T09:58:44.983Z,26.70
2022-08-12T10:00:52.815Z,26.50
2022-08-12T10:04:03.379Z,26.20
2022-08-12T10:06:54.717Z,25.90
2022-08-12T10:09:58.139Z,25.70
2022-08-12T10:13:07.567Z,25.50
2022-08-12T10:16:01.797Z,25.30
2022-08-12T10:18:54.542Z,25.10
2022-08-12T10:21:44.408Z,25.10
2022-08-12T10:24:31.553Z,25.00
2022-08-12T10:27:39.516Z,25.00
2022-08-12T10:30:46.815Z,25.00
2022-08-12T10:34:05.053Z,25.10
2022-08-12T10:36:54.276Z,25.10
2022-08-12T10:40:01.707Z,25.10
2022-08-12T10:43:03.374Z,25.00
2022-08-12T10:45:50.497Z,24.90
2022-08-12T10:48:36.563Z,25.00
2022-08-12T10:52:03.901Z,25.00
2022-08-12T10:54:31.406Z,25.20
2022-08-12T10:58:12.523Z,25.40
2022-08-12T11:00:31.165Z,25.40
2022-08-12T11:04:23.903Z,25.50
2022-08-12T11:07:09.386Z,25.60
2022-08-12T11:09:41.608Z,25.70
2022-08-12T11:12:59.678Z,25.70
2022-08-12T11:16:19.708Z,25.80
2022-08-12T11:18:57.058Z,25.90
2022-08-12T11:21:57.712Z,26.00
2022-08-12T11:24:51.403Z,26.20
2022-08-12T11:27:38.843Z,26.30
2022-08-12T11:30:31.635Z,26.50
2022-08-12T11:33:24.037Z,26.60
2022-08-12T11:36:27.675Z,26.60
2022-08-12T11:39:15.392Z,26.70
2022-08-12T11:42:11.392Z,26.50
2022-08-12T11:44:59.919Z,26.50
2022-08-12T11:47:46.753Z,26.50
2022-08-12T11:50:40.611Z,26.60
2022-08-12T11:53:58.557Z,26.70
2022-08-12T11:56:41.287Z,26.90
2022-08-12T12:02:37.151Z,27.10
2022-08-12T12:05:28.432Z,27.00
2022-08-12T12:08:37.187Z,27.00
2022-08-12T12:11:29.100Z,27.10
2022-08-12T12:14:38.230Z,27.30
2022-08-12T12:17:26.205Z,27.40
2022-08-12T12:20:26.059Z,27.60
2022-08-12T12:23:29.152Z,27.50
2022-08-12T12:26:34.950Z,27.50
2022-08-12T12:30:14.174Z,27.60
2022-08-12T12:32:32.084Z,27.80
2022-08-12T12:36:06.397Z,28.20
2022-08-12T12:38:26.164Z,28.40
2022-08-12T12:41:14.266Z,28.20
2022-08-12T12:44:04.431Z,28.30
2022-08-12T12:46:54.721Z,28.20
2022-08-12T12:49:42.123Z,28.10
2022-08-12T12:52:29.216Z,28.10
2022-08-12T12:55:17.604Z,28.10
2022-08-12T12:58:09.005Z,28.20
2022-08-12T13:01:01.208Z,28.30
2022-08-12T13:03:55.488Z,28.20
2022-08-12T13:06:43.061Z,28.40
2022-08-12T13:09:36.386Z,28.50
2022-08-12T13:12:24.404Z,28.50
2022-08-12T13:15:43.853Z,28.30
2022-08-12T13:18:28.527Z,28.10
2022-08-12T13:21:33.287Z,27.90
2022-08-12T13:24:21.118Z,27.70
2022-08-12T13:27:08.351Z,27.50
2022-08-12T13:29:55.975Z,27.80
2022-08-12T13:32:57.109Z,28.00
2022-08-12T13:36:06.044Z,28.20
2022-08-12T13:38:54.581Z,28.40
2022-08-12T13:41:42.595Z,28.50
2022-08-12T13:44:30.257Z,28.70
2022-08-12T13:47:22.876Z,28.90
2022-08-12T13:50:11.635Z,29.00
2022-08-12T13:52:58.603Z,29.00
2022-08-12T13:55:49.819Z,28.60
2022-08-12T13:58:49.340Z,28.30
2022-08-12T14:01:41.183Z,29.50
2022-08-12T14:04:28.234Z,28.30
2022-08-12T14:07:16.431Z,28.40
2022-08-12T14:10:18.456Z,28.50
2022-08-12T14:13:10.475Z,28.60
2022-08-12T14:18:56.296Z,28.40
2022-08-12T14:22:00.536Z,28.40
2022-08-12T14:24:52.538Z,28.60
2022-08-12T14:28:04.660Z,28.30
2022-08-12T14:31:00.094Z,28.10
2022-08-12T14:33:49.818Z,28.20
2022-08-12T14:36:39.657Z,28.10
2022-08-12T14:39:29.733Z,28.00
2022-08-12T14:42:18.008Z,28.10
2022-08-12T14:45:07.935Z,28.20
2022-08-12T14:48:00.564Z,28.30
2022-08-12T14:51:03.216Z,28.30
2022-08-12T14:56:26.251Z,28.20
2022-08-12T14:57:20.168Z,28.00
2022-08-12T15:00:26.694Z,28.00
2022-08-12T15:03:14.234Z,28.00
2022-08-12T15:06:39.030Z,28.00
2022-08-12T15:09:12.164Z,28.00
2022-08-12T15:12:03.835Z,27.90
2022-08-12T15:14:53.892Z,27.70
2022-08-12T15:17:40.893Z,27.70
2022-08-12T15:20:37.230Z,27.80
2022-08-12T15:23:28.948Z,27.80
2022-08-12T15:26:27.458Z,27.70
2022-08-12T15:29:17.020Z,27.80
2022-08-12T15:32:10.677Z,27.70
2022-08-12T15:35:04.117Z,27.60
2022-08-12T15:38:10.140Z,27.60
2022-08-12T15:41:00.115Z,27.50
2022-08-12T15:44:16.678Z,27.50
2022-08-12T15:46:55.428Z,27.60
2022-08-12T15:50:00.647Z,27.60
2022-08-12T15:52:49.489Z,27.50
2022-08-12T15:55:46.298Z,27.30
2022-08-12T15:58:34.131Z,27.30
2022-08-12T16:01:21.190Z,27.20
2022-08-12T16:04:10.663Z,27.30
2022-08-12T16:07:08.969Z,27.30
2022-08-12T16:10:07.109Z,27.20
2022-08-12T16:12:59.486Z,27.10
2022-08-12T16:15:51.059Z,27.00
2022-08-12T16:18:50.251Z,26.80
2022-08-12T16:21:52.909Z,26.60
2022-08-12T16:24:44.711Z,26.30
2022-08-12T16:27:38.370Z,26.30
2022-08-12T16:30:32.944Z,26.30
2022-08-12T16:33:19.907Z,26.30
2022-08-12T16:36:11.459Z,26.20
2022-08-12T16:39:01.255Z,26.20
2022-08-12T16:47:57.557Z,25.90
2022-08-12T16:50:50.054Z,25.70
2022-08-12T16:53:45.091Z,25.60
2022-08-12T16:56:33.786Z,25.50
2022-08-12T16:59:31.006Z,25.40
2022-08-12T17:02:33.927Z,25.30
2022-08-12T17:05:25.068Z,25.20
2022-08-12T17:08:21.269Z,25.30
2022-08-12T17:11:18.008Z,25.20
2022-08-12T17:14:05.528Z,25.10
2022-08-12T17:16:54.975Z,25.10
2022-08-12T17:20:35.018Z,25.00
2022-08-12T17:22:56.537Z,25.00
2022-08-12T17:25:48.319Z,24.90
2022-08-12T17:28:36.890Z,24.80
2022-08-12T17:32:02.562Z,24.70
2022-08-12T17:34:45.647Z,24.60
2022-08-12T17:37:35.283Z,24.60
2022-08-12T17:40:36.150Z,24.50
2022-08-12T17:43:52.141Z,24.40
2022-08-12T17:46:33.723Z,24.40
2022-08-12T17:50:02.242Z,24.40
2022-08-12T17:52:33.366Z,24.30
2022-08-12T17:55:40.668Z,24.20
2022-08-12T17:58:35.547Z,24.10
2022-08-12T18:01:25.534Z,24.00
2022-08-12T18:04:22.218Z,23.90
2022-08-12T18:07:12.296Z,23.80
2022-08-12T18:10:01.666Z,23.70
2022-08-12T18:12:53.406Z,23.70
2022-08-12T18:16:04.322Z,23.60
2022-08-12T18:18:49.729Z,23.50
2022-08-12T18:22:01.723Z,23.40
2022-08-12T18:24:53.604Z,23.40
2022-08-12T18:27:50.210Z,23.40
2022-08-12T18:31:03.124Z,23.30
2022-08-12T18:33:52.411Z,23.20
2022-08-12T18:36:40.176Z,23.10
2022-08-12T18:39:57.166Z,23.00
2022-08-12T18:42:54.067Z,22.90
2022-08-12T18:45:56.745Z,22.80
2022-08-12T18:48:46.273Z,22.80
2022-08-12T18:51:48.741Z,22.70
2022-08-12T18:54:48.983Z,22.70
2022-08-12T18:57:45.724Z,22.70
2022-08-12T19:00:52.706Z,22.60
2022-08-12T19:03:40.362Z,22.60
2022-08-12T19:06:38.147Z,22.60
2022-08-12T19:09:38.868Z,22.60
2022-08-12T19:12:58.099Z,22.60
2022-08-12T19:15:44.057Z,22.50
2022-08-12T19:18:31.928Z,22.40
2022-08-12T19:21:20.406Z,22.30
2022-08-12T19:24:23.563Z,22.30
2022-08-12T19:27:12.103Z,22.30
2022-08-12T19:30:07.010Z,22.30
2022-08-12T19:32:57.064Z,21.50
2022-08-12T19:36:06.586Z,22.20
2022-08-12T19:38:58.015Z,22.20
2022-08-12T19:42:00.639Z,22.10
2022-08-12T19:44:53.308Z,22.00
2022-08-12T19:47:44.784Z,21.90
2022-08-12T19:50:37.818Z,21.80
2022-08-12T19:53:27.724Z,21.70
2022-08-12T19:56:15.444Z,21.70
2022-08-12T19:59:20.880Z,21.70
2022-08-12T20:02:09.437Z,21.60
2022-08-12T20:06:05.723Z,21.50
2022-08-12T20:08:04.143Z,21.50
2022-08-12T20:10:54.070Z,21.50
2022-08-12T20:13:42.401Z,21.40
2022-08-12T20:20:05.500Z,21.40
2022-08-12T20:22:53.478Z,21.30
2022-08-12T20:25:52.694Z,21.30
2022-08-12T20:28:47.837Z,21.30
2022-08-12T20:31:37.538Z,21.20
2022-08-12T20:34:25.349Z,21.20
2022-08-12T20:37:14.272Z,21.10
2022-08-12T20:40:05.400Z,21.10
2022-08-12T20:42:53.682Z,21.00
2022-08-12T20:45:50.907Z,21.00
2022-08-12T20:48:54.872Z,20.90
2022-08-12T20:51:55.258Z,20.80
2022-08-12T20:54:50.325Z,20.80
2022-08-12T20:58:02.763Z,20.80
2022-08-12T21:00:44.675Z,20.70
2022-08-12T21:03:52.697Z,20.70
2022-08-12T21:06:58.055Z,20.70
2022-08-12T21:09:54.945Z,20.70
2022-08-12T21:12:40.624Z,20.70
2022-08-12T21:15:30.534Z,20.70
2022-08-12T21:18:28.430Z,20.70
2022-08-12T21:21:24.273Z,20.70
2022-08-12T21:24:32.363Z,20.70
2022-08-12T21:27:20.434Z,20.70
2022-08-12T21:30:08.672Z,20.70
2022-08-12T21:32:56.384Z,20.70
2022-08-12T21:35:43.493Z,20.60
2022-08-12T21:38:34.853Z,20.60
2022-08-12T21:41:23.746Z,20.60
2022-08-12T21:44:24.698Z,20.60
2022-08-12T21:47:22.531Z,20.50
2022-08-12T21:50:10.898Z,20.50
2022-08-12T21:53:10.209Z,20.50
2022-08-12T21:55:57.817Z,20.40
2022-08-12T21:58:46.409Z,20.40
2022-08-12T22:01:33.692Z,20.30
2022-08-12T22:04:49.816Z,20.30
2022-08-12T22:07:46.105Z,20.20
2022-08-12T22:10:38.430Z,20.20
2022-08-12T22:14:04.182Z,20.10
2022-08-12T22:16:37.242Z,20.00
2022-08-12T22:19:35.254Z,20.00
2022-08-12T22:22:23.903Z,19.90
2022-08-12T22:25:24.250Z,19.90
2022-08-12T22:28:27.997Z,19.90
2022-08-12T22:31:24.739Z,19.90
2022-08-12T22:34:18.353Z,19.80
2022-08-12T22:37:04.639Z,19.80
2022-08-12T22:39:51.785Z,19.70
2022-08-12T22:42:53.533Z,19.70
2022-08-12T22:45:59.167Z,19.60
2022-08-12T22:48:50.701Z,19.60
2022-08-12T22:51:57.617Z,19.50
2022-08-12T22:55:03.782Z,19.50
2022-08-12T22:57:55.118Z,19.50
2022-08-12T23:00:52.815Z,19.50
2022-08-12T23:03:49.335Z,19.50
2022-08-12T23:06:37.916Z,19.40
2022-08-12T23:09:34.649Z,19.40
2022-08-12T23:12:49.609Z,19.30
2022-08-12T23:15:35.458Z,19.30
2022-08-12T23:18:22.866Z,19.20
2022-08-12T23:21:19.439Z,19.20
2022-08-12T23:24:11.020Z,19.20
2022-08-12T23:27:16.036Z,19.20
2022-08-12T23:30:18.328Z,19.20
2022-08-12T23:33:19.737Z,19.20
2022-08-12T23:36:12.723Z,19.10
2022-08-12T23:40:15.706Z,19.10
2022-08-12T23:42:19.381Z,19.10
2022-08-12T23:45:18.902Z,19.10
2022-08-12T23:48:08.250Z,19.10
2022-08-12T23:51:23.495Z,19.00
2022-08-12T23:54:17.985Z,18.90
2022-08-12T23:57:21.102Z,18.80
